sensor_id;sensor_type;location;lat;lon;timestamp;P1;durP1;ratioP1;P2;durP2;ratioP2
27305;SDS011;14792;50.886;6.468;2022-12-18T00:04:27;49.65;;;21.42;;
27305;SDS011;14792;50.886;6.468;2022-12-18T00:10:30;55.30;;;22.52;;
27305;SDS011;14792;50.886;6.468;2022-12-18T00:16:33;41.02;;;15.90;;
27305;SDS011;14792;50.886;6.468;2022-12-18T00:19:36;53.28;;;19.75;;
27305;SDS011;14792;50.886;6.468;2022-12-18T00:22:38;50.83;;;21.20;;
27305;SDS011;14792;50.886;6.468;2022-12-18T00:25:39;53.38;;;21.95;;
27305;SDS011;14792;50.886;6.468;2022-12-18T00:31:42;53.42;;;21.97;;
27305;SDS011;14792;50.886;6.468;2022-12-18T00:37:45;61.80;;;22.93;;
27305;SDS011;14792;50.886;6.468;2022-12-18T00:43:48;57.33;;;22.17;;
27305;SDS011;14792;50.886;6.468;2022-12-18T00:46:49;52.33;;;22.15;;
27305;SDS011;14792;50.886;6.468;2022-12-18T00:52:52;44.18;;;19.50;;
27305;SDS011;14792;50.886;6.468;2022-12-18T00:55:54;66.05;;;22.42;;
27305;SDS011;14792;50.886;6.468;2022-12-18T01:01:57;59.93;;;22.93;;
27305;SDS011;14792;50.886;6.468;2022-12-18T01:04:58;62.10;;;23.52;;
27305;SDS011;14792;50.886;6.468;2022-12-18T01:11:06;62.90;;;22.22;;
27305;SDS011;14792;50.886;6.468;2022-12-18T01:14:03;59.85;;;21.73;;
27305;SDS011;14792;50.886;6.468;2022-12-18T01:23:07;54.30;;;20.10;;
27305;SDS011;14792;50.886;6.468;2022-12-18T01:29:16;46.60;;;19.98;;
27305;SDS011;14792;50.886;6.468;2022-12-18T01:35:19;42.73;;;16.93;;
27305;SDS011;14792;50.886;6.468;2022-12-18T01:41:23;53.00;;;19.48;;
27305;SDS011;14792;50.886;6.468;2022-12-18T01:47:43;55.90;;;20.85;;
27305;SDS011;14792;50.886;6.468;2022-12-18T01:53:46;41.45;;;17.55;;
27305;SDS011;14792;50.886;6.468;2022-12-18T01:56:47;41.85;;;17.25;;
27305;SDS011;14792;50.886;6.468;2022-12-18T02:02:50;53.28;;;19.32;;
27305;SDS011;14792;50.886;6.468;2022-12-18T02:09:06;48.58;;;18.20;;
27305;SDS011;14792;50.886;6.468;2022-12-18T02:12:13;48.10;;;20.10;;
27305;SDS011;14792;50.886;6.468;2022-12-18T02:15:34;45.67;;;19.02;;
27305;SDS011;14792;50.886;6.468;2022-12-18T02:18:34;47.45;;;18.80;;
27305;SDS011;14792;50.886;6.468;2022-12-18T02:24:54;47.03;;;19.23;;
27305;SDS011;14792;50.886;6.468;2022-12-18T02:27:53;44.18;;;18.57;;
27305;SDS011;14792;50.886;6.468;2022-12-18T02:33:56;43.92;;;16.45;;
27305;SDS011;14792;50.886;6.468;2022-12-18T02:39:58;47.62;;;16.25;;
27305;SDS011;14792;50.886;6.468;2022-12-18T02:46:26;51.42;;;20.37;;
27305;SDS011;14792;50.886;6.468;2022-12-18T02:49:28;50.65;;;20.45;;
27305;SDS011;14792;50.886;6.468;2022-12-18T02:52:46;46.98;;;18.10;;
27305;SDS011;14792;50.886;6.468;2022-12-18T02:56:03;42.03;;;18.32;;
27305;SDS011;14792;50.886;6.468;2022-12-18T03:02:21;42.93;;;17.20;;
27305;SDS011;14792;50.886;6.468;2022-12-18T03:05:22;53.78;;;19.50;;
27305;SDS011;14792;50.886;6.468;2022-12-18T03:11:23;47.65;;;18.45;;
27305;SDS011;14792;50.886;6.468;2022-12-18T03:14:25;42.08;;;17.77;;
27305;SDS011;14792;50.886;6.468;2022-12-18T03:20:29;49.70;;;19.00;;
27305;SDS011;14792;50.886;6.468;2022-12-18T03:23:31;44.33;;;17.60;;
27305;SDS011;14792;50.886;6.468;2022-12-18T03:30:07;58.48;;;19.52;;
27305;SDS011;14792;50.886;6.468;2022-12-18T03:32:50;46.70;;;20.08;;
27305;SDS011;14792;50.886;6.468;2022-12-18T03:35:50;46.88;;;18.23;;
27305;SDS011;14792;50.886;6.468;2022-12-18T03:41:58;50.92;;;19.42;;
27305;SDS011;14792;50.886;6.468;2022-12-18T03:45:06;44.10;;;19.35;;
27305;SDS011;14792;50.886;6.468;2022-12-18T03:48:13;50.52;;;19.65;;
27305;SDS011;14792;50.886;6.468;2022-12-18T03:51:37;44.23;;;20.12;;
27305;SDS011;14792;50.886;6.468;2022-12-18T03:57:18;53.50;;;19.15;;
27305;SDS011;14792;50.886;6.468;2022-12-18T04:03:21;49.13;;;19.12;;
27305;SDS011;14792;50.886;6.468;2022-12-18T04:06:22;48.00;;;20.27;;
27305;SDS011;14792;50.886;6.468;2022-12-18T04:12:25;60.83;;;19.10;;
27305;SDS011;14792;50.886;6.468;2022-12-18T04:15:27;66.33;;;20.55;;
27305;SDS011;14792;50.886;6.468;2022-12-18T04:21:29;55.70;;;19.62;;
27305;SDS011;14792;50.886;6.468;2022-12-18T04:27:32;57.58;;;21.85;;
27305;SDS011;14792;50.886;6.468;2022-12-18T04:33:35;48.35;;;18.92;;
27305;SDS011;14792;50.886;6.468;2022-12-18T04:36:37;54.85;;;21.65;;
27305;SDS011;14792;50.886;6.468;2022-12-18T04:42:40;57.08;;;20.30;;
27305;SDS011;14792;50.886;6.468;2022-12-18T04:48:44;40.55;;;15.48;;
27305;SDS011;14792;50.886;6.468;2022-12-18T04:51:44;65.05;;;20.65;;
27305;SDS011;14792;50.886;6.468;2022-12-18T04:57:47;50.65;;;19.52;;
27305;SDS011;14792;50.886;6.468;2022-12-18T05:03:53;59.90;;;21.55;;
27305;SDS011;14792;50.886;6.468;2022-12-18T05:09:53;68.72;;;22.30;;
27305;SDS011;14792;50.886;6.468;2022-12-18T05:15:58;71.60;;;21.68;;
27305;SDS011;14792;50.886;6.468;2022-12-18T05:22:01;63.95;;;21.95;;
27305;SDS011;14792;50.886;6.468;2022-12-18T05:28:04;47.15;;;15.65;;
27305;SDS011;14792;50.886;6.468;2022-12-18T05:31:08;55.28;;;22.32;;
27305;SDS011;14792;50.886;6.468;2022-12-18T05:34:10;60.95;;;21.68;;
27305;SDS011;14792;50.886;6.468;2022-12-18T05:40:12;43.25;;;17.45;;
27305;SDS011;14792;50.886;6.468;2022-12-18T05:43:14;59.42;;;22.35;;
27305;SDS011;14792;50.886;6.468;2022-12-18T05:49:17;47.33;;;16.90;;
27305;SDS011;14792;50.886;6.468;2022-12-18T05:55:20;52.60;;;21.25;;
27305;SDS011;14792;50.886;6.468;2022-12-18T06:01:23;46.45;;;17.60;;
27305;SDS011;14792;50.886;6.468;2022-12-18T06:07:27;53.00;;;20.62;;
27305;SDS011;14792;50.886;6.468;2022-12-18T06:10:28;56.53;;;22.52;;
27305;SDS011;14792;50.886;6.468;2022-12-18T06:16:31;54.48;;;17.70;;
27305;SDS011;14792;50.886;6.468;2022-12-18T06:19:33;69.53;;;22.73;;
27305;SDS011;14792;50.886;6.468;2022-12-18T06:25:38;59.75;;;22.10;;
27305;SDS011;14792;50.886;6.468;2022-12-18T06:28:39;59.80;;;21.62;;
27305;SDS011;14792;50.886;6.468;2022-12-18T06:34:41;44.48;;;19.92;;
27305;SDS011;14792;50.886;6.468;2022-12-18T06:37:44;54.23;;;22.27;;
27305;SDS011;14792;50.886;6.468;2022-12-18T06:43:47;60.08;;;20.40;;
27305;SDS011;14792;50.886;6.468;2022-12-18T06:46:49;65.52;;;23.35;;
27305;SDS011;14792;50.886;6.468;2022-12-18T06:52:51;58.78;;;22.48;;
27305;SDS011;14792;50.886;6.468;2022-12-18T06:55:59;60.43;;;23.98;;
27305;SDS011;14792;50.886;6.468;2022-12-18T07:01:56;53.70;;;21.50;;
27305;SDS011;14792;50.886;6.468;2022-12-18T07:04:58;53.15;;;22.48;;
27305;SDS011;14792;50.886;6.468;2022-12-18T07:11:02;64.27;;;23.45;;
27305;SDS011;14792;50.886;6.468;2022-12-18T07:17:03;62.13;;;25.10;;
27305;SDS011;14792;50.886;6.468;2022-12-18T07:23:06;59.23;;;25.30;;
27305;SDS011;14792;50.886;6.468;2022-12-18T07:26:09;65.60;;;26.95;;
27305;SDS011;14792;50.886;6.468;2022-12-18T07:32:11;63.33;;;23.38;;
27305;SDS011;14792;50.886;6.468;2022-12-18T07:38:14;64.30;;;23.92;;
27305;SDS011;14792;50.886;6.468;2022-12-18T07:44:16;69.32;;;24.63;;
27305;SDS011;14792;50.886;6.468;2022-12-18T07:50:19;57.93;;;23.77;;
27305;SDS011;14792;50.886;6.468;2022-12-18T07:56:22;62.75;;;24.27;;
27305;SDS011;14792;50.886;6.468;2022-12-18T08:02:25;59.08;;;23.92;;
27305;SDS011;14792;50.886;6.468;2022-12-18T08:08:28;58.00;;;25.32;;
27305;SDS011;14792;50.886;6.468;2022-12-18T08:14:30;58.30;;;21.45;;
27305;SDS011;14792;50.886;6.468;2022-12-18T08:20:33;59.60;;;23.70;;
27305;SDS011;14792;50.886;6.468;2022-12-18T08:26:39;51.60;;;22.45;;
27305;SDS011;14792;50.886;6.468;2022-12-18T08:32:42;56.55;;;24.85;;
27305;SDS011;14792;50.886;6.468;2022-12-18T08:38:45;57.00;;;23.75;;
27305;SDS011;14792;50.886;6.468;2022-12-18T08:44:47;57.53;;;24.45;;
27305;SDS011;14792;50.886;6.468;2022-12-18T08:50:57;56.50;;;24.50;;
27305;SDS011;14792;50.886;6.468;2022-12-18T08:53:58;57.85;;;24.95;;
27305;SDS011;14792;50.886;6.468;2022-12-18T09:00:01;50.38;;;22.80;;
27305;SDS011;14792;50.886;6.468;2022-12-18T09:03:02;53.90;;;22.98;;
27305;SDS011;14792;50.886;6.468;2022-12-18T09:06:04;56.98;;;24.27;;
27305;SDS011;14792;50.886;6.468;2022-12-18T09:12:07;51.98;;;22.30;;
27305;SDS011;14792;50.886;6.468;2022-12-18T09:15:09;59.85;;;23.90;;
27305;SDS011;14792;50.886;6.468;2022-12-18T09:21:13;53.15;;;23.20;;
27305;SDS011;14792;50.886;6.468;2022-12-18T09:24:13;55.70;;;24.87;;
27305;SDS011;14792;50.886;6.468;2022-12-18T09:27:15;57.85;;;24.87;;
27305;SDS011;14792;50.886;6.468;2022-12-18T09:30:16;51.80;;;23.10;;
27305;SDS011;14792;50.886;6.468;2022-12-18T09:33:18;51.37;;;23.45;;
27305;SDS011;14792;50.886;6.468;2022-12-18T09:36:20;52.08;;;24.25;;
27305;SDS011;14792;50.886;6.468;2022-12-18T09:39:21;59.55;;;24.27;;
27305;SDS011;14792;50.886;6.468;2022-12-18T09:42:23;46.85;;;22.58;;
27305;SDS011;14792;50.886;6.468;2022-12-18T09:45:24;55.25;;;24.00;;
27305;SDS011;14792;50.886;6.468;2022-12-18T09:48:46;60.30;;;27.42;;
27305;SDS011;14792;50.886;6.468;2022-12-18T09:54:39;67.25;;;30.57;;
27305;SDS011;14792;50.886;6.468;2022-12-18T09:57:42;66.20;;;27.62;;
27305;SDS011;14792;50.886;6.468;2022-12-18T10:00:41;73.70;;;30.30;;
27305;SDS011;14792;50.886;6.468;2022-12-18T10:03:43;59.55;;;25.65;;
27305;SDS011;14792;50.886;6.468;2022-12-18T10:06:50;54.98;;;24.27;;
27305;SDS011;14792;50.886;6.468;2022-12-18T10:10:04;53.95;;;25.45;;
27305;SDS011;14792;50.886;6.468;2022-12-18T10:16:16;47.33;;;23.75;;
27305;SDS011;14792;50.886;6.468;2022-12-18T10:19:31;58.70;;;26.00;;
27305;SDS011;14792;50.886;6.468;2022-12-18T10:22:42;46.35;;;23.22;;
27305;SDS011;14792;50.886;6.468;2022-12-18T10:25:52;52.10;;;24.52;;
27305;SDS011;14792;50.886;6.468;2022-12-18T10:28:54;49.30;;;22.45;;
27305;SDS011;14792;50.886;6.468;2022-12-18T10:31:55;44.85;;;22.82;;
27305;SDS011;14792;50.886;6.468;2022-12-18T10:34:57;45.38;;;22.35;;
27305;SDS011;14792;50.886;6.468;2022-12-18T10:38:06;66.40;;;31.10;;
27305;SDS011;14792;50.886;6.468;2022-12-18T10:41:23;47.33;;;23.75;;
27305;SDS011;14792;50.886;6.468;2022-12-18T10:44:23;56.83;;;27.30;;
27305;SDS011;14792;50.886;6.468;2022-12-18T10:47:25;47.35;;;22.50;;
27305;SDS011;14792;50.886;6.468;2022-12-18T10:50:36;48.65;;;21.68;;
27305;SDS011;14792;50.886;6.468;2022-12-18T10:53:35;43.98;;;22.40;;
27305;SDS011;14792;50.886;6.468;2022-12-18T10:56:38;47.43;;;22.27;;
27305;SDS011;14792;50.886;6.468;2022-12-18T10:59:59;50.38;;;22.45;;
27305;SDS011;14792;50.886;6.468;2022-12-18T11:02:50;43.63;;;21.62;;
27305;SDS011;14792;50.886;6.468;2022-12-18T11:06:02;51.45;;;23.98;;
27305;SDS011;14792;50.886;6.468;2022-12-18T11:09:04;47.73;;;21.23;;
27305;SDS011;14792;50.886;6.468;2022-12-18T11:12:15;48.87;;;21.68;;
27305;SDS011;14792;50.886;6.468;2022-12-18T11:15:13;44.88;;;22.50;;
27305;SDS011;14792;50.886;6.468;2022-12-18T11:18:16;50.58;;;22.55;;
27305;SDS011;14792;50.886;6.468;2022-12-18T11:21:16;48.28;;;23.15;;
27305;SDS011;14792;50.886;6.468;2022-12-18T11:24:23;50.35;;;22.87;;
27305;SDS011;14792;50.886;6.468;2022-12-18T11:27:31;44.50;;;21.73;;
27305;SDS011;14792;50.886;6.468;2022-12-18T11:30:33;48.33;;;22.55;;
27305;SDS011;14792;50.886;6.468;2022-12-18T11:33:34;43.33;;;22.15;;
27305;SDS011;14792;50.886;6.468;2022-12-18T11:36:37;52.80;;;23.05;;
27305;SDS011;14792;50.886;6.468;2022-12-18T11:39:40;53.00;;;21.80;;
27305;SDS011;14792;50.886;6.468;2022-12-18T11:42:54;44.23;;;22.07;;
27305;SDS011;14792;50.886;6.468;2022-12-18T11:45:50;44.35;;;20.40;;
27305;SDS011;14792;50.886;6.468;2022-12-18T11:49:00;49.70;;;22.55;;
27305;SDS011;14792;50.886;6.468;2022-12-18T11:52:09;49.70;;;22.02;;
27305;SDS011;14792;50.886;6.468;2022-12-18T11:55:14;45.90;;;24.00;;
27305;SDS011;14792;50.886;6.468;2022-12-18T12:04:58;56.05;;;23.25;;
27305;SDS011;14792;50.886;6.468;2022-12-18T12:08:11;51.73;;;22.07;;
27305;SDS011;14792;50.886;6.468;2022-12-18T12:11:27;53.48;;;22.40;;
27305;SDS011;14792;50.886;6.468;2022-12-18T12:14:48;49.48;;;21.55;;
27305;SDS011;14792;50.886;6.468;2022-12-18T12:17:52;48.20;;;23.47;;
27305;SDS011;14792;50.886;6.468;2022-12-18T12:24:10;54.95;;;23.42;;
27305;SDS011;14792;50.886;6.468;2022-12-18T12:27:20;51.28;;;24.40;;
27305;SDS011;14792;50.886;6.468;2022-12-18T12:30:44;46.35;;;23.85;;
27305;SDS011;14792;50.886;6.468;2022-12-18T12:37:14;46.95;;;24.95;;
27305;SDS011;14792;50.886;6.468;2022-12-18T12:40:21;49.75;;;24.90;;
27305;SDS011;14792;50.886;6.468;2022-12-18T12:43:26;50.98;;;23.98;;
27305;SDS011;14792;50.886;6.468;2022-12-18T12:46:24;43.73;;;22.95;;
27305;SDS011;14792;50.886;6.468;2022-12-18T12:49:26;41.95;;;22.67;;
27305;SDS011;14792;50.886;6.468;2022-12-18T12:52:28;48.33;;;24.02;;
27305;SDS011;14792;50.886;6.468;2022-12-18T12:55:29;50.30;;;23.92;;
27305;SDS011;14792;50.886;6.468;2022-12-18T12:58:38;46.08;;;23.42;;
27305;SDS011;14792;50.886;6.468;2022-12-18T13:01:52;44.83;;;23.15;;
27305;SDS011;14792;50.886;6.468;2022-12-18T13:08:24;47.38;;;22.87;;
27305;SDS011;14792;50.886;6.468;2022-12-18T13:15:11;43.87;;;22.40;;
27305;SDS011;14792;50.886;6.468;2022-12-18T13:21:20;44.20;;;23.80;;
27305;SDS011;14792;50.886;6.468;2022-12-18T13:24:23;66.40;;;27.20;;
27305;SDS011;14792;50.886;6.468;2022-12-18T13:37:39;45.15;;;21.75;;
27305;SDS011;14792;50.886;6.468;2022-12-18T13:43:49;43.02;;;21.07;;
27305;SDS011;14792;50.886;6.468;2022-12-18T13:46:52;44.27;;;22.17;;
27305;SDS011;14792;50.886;6.468;2022-12-18T13:49:54;52.70;;;23.02;;
27305;SDS011;14792;50.886;6.468;2022-12-18T13:52:55;49.65;;;23.77;;
27305;SDS011;14792;50.886;6.468;2022-12-18T13:55:57;43.20;;;20.97;;
27305;SDS011;14792;50.886;6.468;2022-12-18T13:59:41;44.35;;;22.75;;
27305;SDS011;14792;50.886;6.468;2022-12-18T14:02:22;45.30;;;22.93;;
27305;SDS011;14792;50.886;6.468;2022-12-18T14:05:34;51.28;;;24.07;;
27305;SDS011;14792;50.886;6.468;2022-12-18T14:08:34;53.45;;;22.85;;
27305;SDS011;14792;50.886;6.468;2022-12-18T14:11:34;62.30;;;27.50;;
27305;SDS011;14792;50.886;6.468;2022-12-18T14:14:37;49.33;;;23.80;;
27305;SDS011;14792;50.886;6.468;2022-12-18T14:17:39;59.50;;;23.95;;
27305;SDS011;14792;50.886;6.468;2022-12-18T14:20:41;57.55;;;24.72;;
27305;SDS011;14792;50.886;6.468;2022-12-18T14:23:42;53.55;;;23.40;;
27305;SDS011;14792;50.886;6.468;2022-12-18T14:26:44;51.30;;;24.37;;
27305;SDS011;14792;50.886;6.468;2022-12-18T14:29:45;51.83;;;23.83;;
27305;SDS011;14792;50.886;6.468;2022-12-18T14:32:59;52.13;;;23.27;;
27305;SDS011;14792;50.886;6.468;2022-12-18T14:35:53;50.28;;;23.67;;
27305;SDS011;14792;50.886;6.468;2022-12-18T14:38:59;50.60;;;23.67;;
27305;SDS011;14792;50.886;6.468;2022-12-18T14:42:00;49.53;;;24.85;;
27305;SDS011;14792;50.886;6.468;2022-12-18T14:51:42;50.67;;;24.87;;
27305;SDS011;14792;50.886;6.468;2022-12-18T14:54:45;51.55;;;24.95;;
27305;SDS011;14792;50.886;6.468;2022-12-18T14:57:44;49.65;;;24.77;;
27305;SDS011;14792;50.886;6.468;2022-12-18T15:00:46;53.25;;;26.60;;
27305;SDS011;14792;50.886;6.468;2022-12-18T15:03:48;52.55;;;25.02;;
27305;SDS011;14792;50.886;6.468;2022-12-18T15:06:50;48.87;;;23.95;;
27305;SDS011;14792;50.886;6.468;2022-12-18T15:10:10;53.42;;;24.37;;
27305;SDS011;14792;50.886;6.468;2022-12-18T15:13:21;55.10;;;25.08;;
27305;SDS011;14792;50.886;6.468;2022-12-18T15:16:22;47.38;;;23.65;;
27305;SDS011;14792;50.886;6.468;2022-12-18T15:19:32;49.60;;;25.20;;
27305;SDS011;14792;50.886;6.468;2022-12-18T15:22:30;50.00;;;25.23;;
27305;SDS011;14792;50.886;6.468;2022-12-18T15:25:39;48.75;;;24.82;;
27305;SDS011;14792;50.886;6.468;2022-12-18T15:28:53;51.35;;;25.05;;
27305;SDS011;14792;50.886;6.468;2022-12-18T15:32:04;51.92;;;26.50;;
27305;SDS011;14792;50.886;6.468;2022-12-18T15:38:11;52.78;;;26.25;;
27305;SDS011;14792;50.886;6.468;2022-12-18T15:41:17;51.53;;;26.10;;
27305;SDS011;14792;50.886;6.468;2022-12-18T15:44:22;54.03;;;26.87;;
27305;SDS011;14792;50.886;6.468;2022-12-18T15:47:22;57.90;;;27.75;;
27305;SDS011;14792;50.886;6.468;2022-12-18T15:50:24;54.70;;;27.25;;
27305;SDS011;14792;50.886;6.468;2022-12-18T15:53:27;65.05;;;27.40;;
27305;SDS011;14792;50.886;6.468;2022-12-18T15:56:27;61.53;;;28.20;;
27305;SDS011;14792;50.886;6.468;2022-12-18T15:59:46;63.15;;;30.30;;
27305;SDS011;14792;50.886;6.468;2022-12-18T16:02:48;54.20;;;23.62;;
27305;SDS011;14792;50.886;6.468;2022-12-18T16:05:50;54.77;;;25.40;;
27305;SDS011;14792;50.886;6.468;2022-12-18T16:08:51;55.10;;;24.80;;
27305;SDS011;14792;50.886;6.468;2022-12-18T16:11:53;54.15;;;25.90;;
27305;SDS011;14792;50.886;6.468;2022-12-18T16:14:54;51.60;;;26.02;;
27305;SDS011;14792;50.886;6.468;2022-12-18T16:17:56;58.13;;;26.55;;
27305;SDS011;14792;50.886;6.468;2022-12-18T16:20:58;57.20;;;26.27;;
27305;SDS011;14792;50.886;6.468;2022-12-18T16:23:59;58.73;;;25.30;;
27305;SDS011;14792;50.886;6.468;2022-12-18T16:27:01;63.75;;;26.93;;
27305;SDS011;14792;50.886;6.468;2022-12-18T16:30:02;60.30;;;25.50;;
27305;SDS011;14792;50.886;6.468;2022-12-18T16:33:04;61.23;;;26.65;;
27305;SDS011;14792;50.886;6.468;2022-12-18T16:36:09;51.92;;;26.55;;
27305;SDS011;14792;50.886;6.468;2022-12-18T16:39:10;55.30;;;24.57;;
27305;SDS011;14792;50.886;6.468;2022-12-18T16:42:16;56.08;;;27.58;;
27305;SDS011;14792;50.886;6.468;2022-12-18T16:45:15;53.65;;;27.13;;
27305;SDS011;14792;50.886;6.468;2022-12-18T16:48:15;53.20;;;27.50;;
27305;SDS011;14792;50.886;6.468;2022-12-18T16:51:17;53.10;;;26.00;;
27305;SDS011;14792;50.886;6.468;2022-12-18T16:54:18;60.15;;;28.85;;
27305;SDS011;14792;50.886;6.468;2022-12-18T16:57:20;55.08;;;26.82;;
27305;SDS011;14792;50.886;6.468;2022-12-18T17:00:23;59.65;;;27.27;;
27305;SDS011;14792;50.886;6.468;2022-12-18T17:03:25;57.55;;;26.87;;
27305;SDS011;14792;50.886;6.468;2022-12-18T17:09:28;59.35;;;28.07;;
27305;SDS011;14792;50.886;6.468;2022-12-18T17:12:29;58.25;;;27.65;;
27305;SDS011;14792;50.886;6.468;2022-12-18T17:15:33;57.17;;;26.82;;
27305;SDS011;14792;50.886;6.468;2022-12-18T17:18:35;54.38;;;27.22;;
27305;SDS011;14792;50.886;6.468;2022-12-18T17:21:37;58.38;;;26.87;;
27305;SDS011;14792;50.886;6.468;2022-12-18T17:24:39;72.45;;;29.98;;
27305;SDS011;14792;50.886;6.468;2022-12-18T17:27:40;64.10;;;29.70;;
27305;SDS011;14792;50.886;6.468;2022-12-18T17:30:42;58.92;;;27.13;;
27305;SDS011;14792;50.886;6.468;2022-12-18T17:33:43;64.07;;;29.12;;
27305;SDS011;14792;50.886;6.468;2022-12-18T17:36:45;64.67;;;29.32;;
27305;SDS011;14792;50.886;6.468;2022-12-18T17:39:47;62.50;;;28.90;;
27305;SDS011;14792;50.886;6.468;2022-12-18T17:42:51;73.52;;;31.02;;
27305;SDS011;14792;50.886;6.468;2022-12-18T17:45:50;59.05;;;28.75;;
27305;SDS011;14792;50.886;6.468;2022-12-18T17:48:54;64.45;;;29.25;;
27305;SDS011;14792;50.886;6.468;2022-12-18T17:51:53;62.62;;;29.10;;
27305;SDS011;14792;50.886;6.468;2022-12-18T17:54:55;64.72;;;30.97;;
27305;SDS011;14792;50.886;6.468;2022-12-18T17:57:56;66.28;;;29.25;;
27305;SDS011;14792;50.886;6.468;2022-12-18T18:00:58;72.35;;;29.45;;
27305;SDS011;14792;50.886;6.468;2022-12-18T18:03:59;61.90;;;28.85;;
27305;SDS011;14792;50.886;6.468;2022-12-18T18:07:01;70.65;;;30.20;;
27305;SDS011;14792;50.886;6.468;2022-12-18T18:10:03;65.87;;;30.10;;
27305;SDS011;14792;50.886;6.468;2022-12-18T18:13:05;70.00;;;32.40;;
27305;SDS011;14792;50.886;6.468;2022-12-18T18:16:24;66.07;;;29.72;;
27305;SDS011;14792;50.886;6.468;2022-12-18T18:19:25;63.15;;;28.47;;
27305;SDS011;14792;50.886;6.468;2022-12-18T18:22:27;61.25;;;27.90;;
27305;SDS011;14792;50.886;6.468;2022-12-18T18:25:28;58.40;;;28.55;;
27305;SDS011;14792;50.886;6.468;2022-12-18T18:28:30;62.85;;;28.85;;
27305;SDS011;14792;50.886;6.468;2022-12-18T18:31:32;63.87;;;29.50;;
27305;SDS011;14792;50.886;6.468;2022-12-18T18:34:33;66.42;;;30.55;;
27305;SDS011;14792;50.886;6.468;2022-12-18T18:37:36;60.60;;;29.37;;
27305;SDS011;14792;50.886;6.468;2022-12-18T18:40:38;68.40;;;30.77;;
27305;SDS011;14792;50.886;6.468;2022-12-18T18:43:40;71.20;;;31.15;;
27305;SDS011;14792;50.886;6.468;2022-12-18T18:46:41;73.37;;;30.75;;
27305;SDS011;14792;50.886;6.468;2022-12-18T18:49:43;63.45;;;29.00;;
27305;SDS011;14792;50.886;6.468;2022-12-18T18:52:45;73.22;;;31.90;;
27305;SDS011;14792;50.886;6.468;2022-12-18T18:55:46;70.80;;;31.42;;
27305;SDS011;14792;50.886;6.468;2022-12-18T18:58:48;66.12;;;33.55;;
27305;SDS011;14792;50.886;6.468;2022-12-18T19:01:49;82.90;;;32.85;;
27305;SDS011;14792;50.886;6.468;2022-12-18T19:04:51;74.75;;;34.88;;
27305;SDS011;14792;50.886;6.468;2022-12-18T19:07:54;68.85;;;32.35;;
27305;SDS011;14792;50.886;6.468;2022-12-18T19:10:55;75.75;;;32.30;;
27305;SDS011;14792;50.886;6.468;2022-12-18T19:13:56;77.82;;;33.40;;
27305;SDS011;14792;50.886;6.468;2022-12-18T19:16:57;73.35;;;32.42;;
27305;SDS011;14792;50.886;6.468;2022-12-18T19:19:59;64.82;;;31.42;;
27305;SDS011;14792;50.886;6.468;2022-12-18T19:23:00;70.40;;;32.40;;
27305;SDS011;14792;50.886;6.468;2022-12-18T19:26:03;67.70;;;31.93;;
27305;SDS011;14792;50.886;6.468;2022-12-18T19:29:04;65.50;;;31.45;;
27305;SDS011;14792;50.886;6.468;2022-12-18T19:32:05;79.87;;;33.75;;
27305;SDS011;14792;50.886;6.468;2022-12-18T19:35:10;70.97;;;32.35;;
27305;SDS011;14792;50.886;6.468;2022-12-18T19:38:11;74.50;;;32.85;;
27305;SDS011;14792;50.886;6.468;2022-12-18T19:41:13;71.30;;;34.58;;
27305;SDS011;14792;50.886;6.468;2022-12-18T19:44:15;64.92;;;32.17;;
27305;SDS011;14792;50.886;6.468;2022-12-18T19:47:16;68.78;;;31.40;;
27305;SDS011;14792;50.886;6.468;2022-12-18T19:50:18;65.28;;;31.65;;
27305;SDS011;14792;50.886;6.468;2022-12-18T19:53:19;60.75;;;29.67;;
27305;SDS011;14792;50.886;6.468;2022-12-18T19:56:22;66.47;;;30.55;;
27305;SDS011;14792;50.886;6.468;2022-12-18T19:59:23;66.17;;;29.90;;
27305;SDS011;14792;50.886;6.468;2022-12-18T20:02:24;70.32;;;30.90;;
27305;SDS011;14792;50.886;6.468;2022-12-18T20:05:26;64.25;;;30.48;;
27305;SDS011;14792;50.886;6.468;2022-12-18T20:08:27;67.30;;;31.55;;
27305;SDS011;14792;50.886;6.468;2022-12-18T20:11:29;66.72;;;30.82;;
27305;SDS011;14792;50.886;6.468;2022-12-18T20:14:30;70.10;;;32.03;;
27305;SDS011;14792;50.886;6.468;2022-12-18T20:17:32;67.35;;;31.80;;
27305;SDS011;14792;50.886;6.468;2022-12-18T20:20:34;70.05;;;30.72;;
27305;SDS011;14792;50.886;6.468;2022-12-18T20:23:36;63.08;;;31.73;;
27305;SDS011;14792;50.886;6.468;2022-12-18T20:26:39;72.65;;;31.42;;
27305;SDS011;14792;50.886;6.468;2022-12-18T20:29:40;69.80;;;31.73;;
27305;SDS011;14792;50.886;6.468;2022-12-18T20:32:42;66.75;;;31.05;;
27305;SDS011;14792;50.886;6.468;2022-12-18T20:35:43;75.95;;;35.13;;
27305;SDS011;14792;50.886;6.468;2022-12-18T20:38:45;74.92;;;34.50;;
27305;SDS011;14792;50.886;6.468;2022-12-18T20:41:47;60.98;;;31.90;;
27305;SDS011;14792;50.886;6.468;2022-12-18T20:44:48;62.20;;;30.77;;
27305;SDS011;14792;50.886;6.468;2022-12-18T20:47:52;69.03;;;32.10;;
27305;SDS011;14792;50.886;6.468;2022-12-18T20:51:01;75.57;;;33.67;;
27305;SDS011;14792;50.886;6.468;2022-12-18T20:54:02;62.33;;;32.55;;
27305;SDS011;14792;50.886;6.468;2022-12-18T20:57:03;62.45;;;31.85;;
27305;SDS011;14792;50.886;6.468;2022-12-18T21:00:05;66.92;;;33.50;;
27305;SDS011;14792;50.886;6.468;2022-12-18T21:03:08;72.25;;;32.13;;
27305;SDS011;14792;50.886;6.468;2022-12-18T21:06:09;71.17;;;32.40;;
27305;SDS011;14792;50.886;6.468;2022-12-18T21:09:10;74.67;;;36.03;;
27305;SDS011;14792;50.886;6.468;2022-12-18T21:12:12;74.15;;;34.18;;
27305;SDS011;14792;50.886;6.468;2022-12-18T21:15:31;75.45;;;33.13;;
27305;SDS011;14792;50.886;6.468;2022-12-18T21:18:32;75.15;;;35.00;;
27305;SDS011;14792;50.886;6.468;2022-12-18T21:21:34;70.30;;;33.83;;
27305;SDS011;14792;50.886;6.468;2022-12-18T21:24:40;76.67;;;36.77;;
27305;SDS011;14792;50.886;6.468;2022-12-18T21:27:41;70.70;;;34.38;;
27305;SDS011;14792;50.886;6.468;2022-12-18T21:30:43;88.25;;;36.42;;
27305;SDS011;14792;50.886;6.468;2022-12-18T21:33:44;83.87;;;37.98;;
27305;SDS011;14792;50.886;6.468;2022-12-18T21:36:46;80.10;;;35.60;;
27305;SDS011;14792;50.886;6.468;2022-12-18T21:39:48;72.90;;;35.70;;
27305;SDS011;14792;50.886;6.468;2022-12-18T21:42:49;85.25;;;39.03;;
27305;SDS011;14792;50.886;6.468;2022-12-18T21:46:08;83.80;;;38.08;;
27305;SDS011;14792;50.886;6.468;2022-12-18T21:49:10;76.75;;;38.05;;
27305;SDS011;14792;50.886;6.468;2022-12-18T21:52:12;83.70;;;38.23;;
27305;SDS011;14792;50.886;6.468;2022-12-18T21:55:13;87.55;;;39.38;;
27305;SDS011;14792;50.886;6.468;2022-12-18T21:58:15;85.12;;;39.42;;
27305;SDS011;14792;50.886;6.468;2022-12-18T22:01:16;86.67;;;37.63;;
27305;SDS011;14792;50.886;6.468;2022-12-18T22:04:18;90.50;;;40.43;;
27305;SDS011;14792;50.886;6.468;2022-12-18T22:07:20;82.20;;;38.85;;
27305;SDS011;14792;50.886;6.468;2022-12-18T22:10:21;82.88;;;37.55;;
27305;SDS011;14792;50.886;6.468;2022-12-18T22:13:23;88.00;;;40.60;;
27305;SDS011;14792;50.886;6.468;2022-12-18T22:16:24;80.45;;;38.25;;
27305;SDS011;14792;50.886;6.468;2022-12-18T22:19:26;86.97;;;38.33;;
27305;SDS011;14792;50.886;6.468;2022-12-18T22:22:28;93.85;;;42.60;;
27305;SDS011;14792;50.886;6.468;2022-12-18T22:25:29;88.90;;;39.15;;